Главная страница
METAR-TAF:

METAR-TAF

Аэропорты :

Ульяновск, Россия

Ульяновск-Восточный

широта: 54-21N, долгота: 048-23E, высота над уровнем моря: м

Текущие метеонаблюдения

Эта сводка был подготовлена 1 час и 4 минут назад, в 16:00 UTC
Ветер 8 Узел от западный
Температура 22°C
Влажность 50%
Давление 1014 hPa
Видимость: 8000 м

METAR: UWLW 191600Z 27004MPS 8000 NSC 22/11 Q1014 R20/CLRD60 NOSIG RMK QFE755

Время: 20:04 (17:04 UTC)

Прогноз

Эта сводка был подготовлена 3 часа и 19 минут назад, в 13:45 UTC
Прогноз действительный с 19-го 15 UTC до 20-го 15 UTC
Ветер 6 Узел от западно-северо-западный с порывами до 16 Узел
Видимость 10 км и более
Отдельные облака на высоте 3000 фута
временами
С 19-го 15 UTC до 19-го 20 UTC
Ветер 19 Узел от западный-юго-западный
временами
С 19-го 20 UTC до 20-го 15 UTC
Ветер 6 Узел от северно-северо-западный с порывами до 17 Узел

TAF: UWLW 191345Z 1915/2015 29003G08MPS 9999 SCT030 TEMPO 1915/1920 24010MPS TEMPO 1920/2015 33003G09MPS

Метеонаблюдения и прогнозы для более 4000 аэропортов (сводки METAR и TAF).

Имеющиеся станции представлены на карте желтыми и красными точками.

Чтобы увидеть название станции, наведите на нее мышь.

Затем щелкните, чтобы увидеть метеонаблюдения и метеопрогнозы.

Управление картой: чтобы увеличить масштаб, щелкните зеленые кнопки с черным крестиком; чтобы уменьшить масштаб, щелкните зеленую кнопку с тире; для просмотра соседних карт щелкайте зеленые стрелки.


METAR-TAF: